createdAt,value
2018-08-02T00:00:22.398Z,12.77
2018-08-02T00:01:22.391Z,12.95
2018-08-02T00:02:22.364Z,12.84
2018-08-02T00:03:22.343Z,12.92
2018-08-02T00:04:22.314Z,12.82
2018-08-02T00:05:22.286Z,12.81
2018-08-02T00:06:22.263Z,12.95
2018-08-02T00:07:22.222Z,12.82
2018-08-02T00:08:22.212Z,12.82
2018-08-02T00:09:22.189Z,12.81
2018-08-02T00:10:22.163Z,12.99
2018-08-02T00:11:22.135Z,12.84
2018-08-02T00:12:22.110Z,12.88
2018-08-02T00:13:22.067Z,12.88
2018-08-02T00:14:22.055Z,12.79
2018-08-02T00:15:22.015Z,12.77
2018-08-02T00:16:22.005Z,12.84
2018-08-02T00:17:21.979Z,12.82
2018-08-02T00:18:21.956Z,12.85
2018-08-02T00:19:21.934Z,12.84
2018-08-02T00:20:21.905Z,12.84
2018-08-02T00:21:21.881Z,12.78
2018-08-02T00:22:21.850Z,12.84
2018-08-02T00:23:21.827Z,12.79
2018-08-02T00:24:21.807Z,12.82
2018-08-02T00:25:21.775Z,12.84
2018-08-02T00:26:21.753Z,12.79
2018-08-02T00:27:21.726Z,12.82
2018-08-02T00:28:21.700Z,12.85
2018-08-02T00:29:21.676Z,12.85
2018-08-02T00:30:21.650Z,12.84
2018-08-02T00:31:21.624Z,12.81
2018-08-02T00:32:21.596Z,12.87
2018-08-02T00:33:21.553Z,12.87
2018-08-02T00:34:21.544Z,12.96
2018-08-02T00:35:21.523Z,12.77
2018-08-02T00:36:21.497Z,12.82
2018-08-02T00:37:21.474Z,12.82
2018-08-02T00:38:21.444Z,12.82
2018-08-02T00:39:21.420Z,12.84
2018-08-02T00:40:21.374Z,12.84
2018-08-02T00:41:21.372Z,12.99
2018-08-02T00:42:21.343Z,12.95
2018-08-02T00:43:21.317Z,12.85
2018-08-02T00:44:21.293Z,12.75
2018-08-02T00:45:21.268Z,12.82
2018-08-02T00:46:21.246Z,12.87
2018-08-02T00:47:21.216Z,12.92
2018-08-02T00:48:21.176Z,12.88
2018-08-02T00:49:21.163Z,12.87
2018-08-02T00:50:21.141Z,12.89
2018-08-02T00:51:21.118Z,12.88
2018-08-02T00:52:21.085Z,12.82
2018-08-02T00:53:21.063Z,12.99
2018-08-02T00:54:21.037Z,12.95
2018-08-02T00:55:21.013Z,12.93
2018-08-02T00:56:20.988Z,12.87
2018-08-02T00:57:20.963Z,12.87
2018-08-02T00:58:20.937Z,12.84
2018-08-02T00:59:20.908Z,12.92
2018-08-02T01:00:20.881Z,12.97
2018-08-02T01:01:20.842Z,12.87
2018-08-02T01:02:20.834Z,12.89
2018-08-02T01:03:20.805Z,12.89
2018-08-02T01:04:20.779Z,12.95
2018-08-02T01:05:20.739Z,12.99
2018-08-02T01:06:20.733Z,12.97
2018-08-02T01:07:20.690Z,13.06
2018-08-02T01:08:20.679Z,13.02
2018-08-02T01:09:20.658Z,12.96
2018-08-02T01:10:20.631Z,13.02
2018-08-02T01:11:20.608Z,13.04
2018-08-02T01:12:20.579Z,13.00
2018-08-02T01:13:20.549Z,13.03
2018-08-02T01:14:20.531Z,13.11
2018-08-02T01:15:20.480Z,13.06
2018-08-02T01:16:20.460Z,13.04
2018-08-02T01:17:20.457Z,13.03
2018-08-02T01:18:20.432Z,13.04
2018-08-02T01:19:20.401Z,13.00
2018-08-02T01:20:20.373Z,13.02
2018-08-02T01:21:20.354Z,13.06
2018-08-02T01:22:20.326Z,13.02
2018-08-02T01:23:20.299Z,12.99
2018-08-02T01:24:20.257Z,13.02
2018-08-02T01:25:20.246Z,13.00
2018-08-02T01:26:20.225Z,13.02
2018-08-02T01:27:20.199Z,13.04
2018-08-02T01:28:20.177Z,13.03
2018-08-02T01:29:20.164Z,13.06
2018-08-02T01:30:20.125Z,13.06
2018-08-02T01:31:20.081Z,13.07
2018-08-02T01:32:20.121Z,13.07
2018-08-02T01:33:20.052Z,13.00
2018-08-02T01:34:20.001Z,13.03
2018-08-02T01:35:19.993Z,13.04
2018-08-02T01:36:19.971Z,13.06
2018-08-02T01:37:19.952Z,13.04
2018-08-02T01:38:19.922Z,13.11
2018-08-02T01:39:19.894Z,13.03
2018-08-02T01:40:19.871Z,13.11
2018-08-02T01:41:19.848Z,13.06
2018-08-02T01:42:19.821Z,13.04
2018-08-02T01:43:19.794Z,13.04
2018-08-02T01:44:19.765Z,13.18
2018-08-02T01:45:19.750Z,13.12
2018-08-02T01:46:19.718Z,13.07
2018-08-02T01:47:19.698Z,13.17
2018-08-02T01:48:19.673Z,13.15
2018-08-02T01:49:19.643Z,13.17
2018-08-02T01:50:19.618Z,13.11
2018-08-02T01:51:19.591Z,13.12
2018-08-02T01:52:19.565Z,13.17
2018-08-02T01:53:19.541Z,13.17
2018-08-02T01:54:19.518Z,13.14
2018-08-02T01:55:19.473Z,13.17
2018-08-02T01:56:19.466Z,13.12
2018-08-02T01:57:19.441Z,13.15
2018-08-02T01:58:19.420Z,13.12
2018-08-02T01:59:19.393Z,13.21
2018-08-02T02:00:19.366Z,13.14
2018-08-02T02:01:19.337Z,13.21
2018-08-02T02:02:19.317Z,13.20
2018-08-02T02:03:19.290Z,13.20
2018-08-02T02:04:19.266Z,13.18
2018-08-02T02:05:19.240Z,13.22
2018-08-02T02:06:19.217Z,13.14
2018-08-02T02:07:19.191Z,13.21
2018-08-02T02:08:19.164Z,13.22
2018-08-02T02:09:19.119Z,13.09
2018-08-02T02:10:19.097Z,13.17
2018-08-02T02:11:19.068Z,13.12
2018-08-02T02:12:19.067Z,13.12
2018-08-02T02:13:19.020Z,13.09
2018-08-02T02:14:19.016Z,13.15
2018-08-02T02:15:18.973Z,13.21
2018-08-02T02:16:18.965Z,13.15
2018-08-02T02:17:18.924Z,13.14
2018-08-02T02:18:18.912Z,13.15
2018-08-02T02:19:18.888Z,13.12
2018-08-02T02:20:18.864Z,13.07
2018-08-02T02:21:18.840Z,13.12
2018-08-02T02:22:18.808Z,13.15
2018-08-02T02:23:18.788Z,13.22
2018-08-02T02:24:18.765Z,13.18
2018-08-02T02:25:18.733Z,13.09
2018-08-02T02:26:18.690Z,13.18
2018-08-02T02:27:18.685Z,13.17
2018-08-02T02:28:18.662Z,13.04
2018-08-02T02:29:18.615Z,13.06
2018-08-02T02:30:18.589Z,13.14
2018-08-02T02:31:18.585Z,13.09
2018-08-02T02:32:18.559Z,13.04
2018-08-02T02:33:18.531Z,13.04
2018-08-02T02:34:18.513Z,13.12
2018-08-02T02:35:18.484Z,13.15
2018-08-02T02:36:18.461Z,13.09
2018-08-02T02:37:18.433Z,13.09
2018-08-02T02:38:18.413Z,13.11
2018-08-02T02:39:18.381Z,13.07
2018-08-02T02:40:18.362Z,13.11
2018-08-02T02:41:18.338Z,13.04
2018-08-02T02:42:18.312Z,13.11
2018-08-02T02:43:18.282Z,13.03
2018-08-02T02:44:18.261Z,13.15
2018-08-02T02:45:18.229Z,13.14
2018-08-02T02:46:18.204Z,13.12
2018-08-02T02:47:18.183Z,13.18
2018-08-02T02:48:18.156Z,13.11
2018-08-02T02:49:18.132Z,13.15
2018-08-02T02:50:18.107Z,13.12
2018-08-02T02:51:18.081Z,13.17
2018-08-02T02:52:18.056Z,13.14
2018-08-02T02:53:18.012Z,13.20
2018-08-02T02:54:18.006Z,13.21
2018-08-02T02:55:17.959Z,13.09
2018-08-02T02:56:17.955Z,13.11
2018-08-02T02:57:17.935Z,13.11
2018-08-02T02:58:17.908Z,13.18
2018-08-02T02:59:17.876Z,13.09
2018-08-02T03:00:17.860Z,13.11
2018-08-02T03:01:17.831Z,13.14
2018-08-02T03:02:17.811Z,13.17
2018-08-02T03:03:17.778Z,13.14
2018-08-02T03:04:17.732Z,13.14
2018-08-02T03:05:17.733Z,13.12
2018-08-02T03:06:17.701Z,13.18
2018-08-02T03:07:17.656Z,13.15
2018-08-02T03:08:17.651Z,13.24
2018-08-02T03:09:17.625Z,13.11
2018-08-02T03:10:17.603Z,13.21
2018-08-02T03:11:17.581Z,13.12
2018-08-02T03:12:17.532Z,13.21
2018-08-02T03:13:17.519Z,13.17
2018-08-02T03:14:17.497Z,13.20
2018-08-02T03:15:17.726Z,13.12
2018-08-02T03:16:17.448Z,13.09
2018-08-02T03:17:17.421Z,13.18
2018-08-02T03:18:17.403Z,13.12
2018-08-02T03:19:17.376Z,13.12
2018-08-02T03:20:17.330Z,13.15
2018-08-02T03:21:17.325Z,13.22
2018-08-02T03:22:17.300Z,13.17
2018-08-02T03:23:17.258Z,13.27
2018-08-02T03:24:17.248Z,13.21
2018-08-02T03:25:17.224Z,13.25
2018-08-02T03:26:17.205Z,13.25
2018-08-02T03:27:17.152Z,13.25
2018-08-02T03:28:17.150Z,13.24
2018-08-02T03:29:17.120Z,13.21
2018-08-02T03:30:17.103Z,13.15
2018-08-02T03:31:17.071Z,13.27
2018-08-02T03:32:17.050Z,13.24
2018-08-02T03:33:17.020Z,13.29
2018-08-02T03:34:16.983Z,13.25
2018-08-02T03:35:16.969Z,13.33
2018-08-02T03:36:16.930Z,13.29
2018-08-02T03:37:16.928Z,13.24
2018-08-02T03:38:16.894Z,13.27
2018-08-02T03:39:16.871Z,13.27
2018-08-02T03:40:16.852Z,13.37
2018-08-02T03:41:16.825Z,13.32
2018-08-02T03:42:16.797Z,13.37
2018-08-02T03:43:16.776Z,13.38
2018-08-02T03:44:16.785Z,13.40
2018-08-02T03:45:16.720Z,13.38
2018-08-02T03:46:16.699Z,13.36
2018-08-02T03:47:16.653Z,13.38
2018-08-02T03:48:16.625Z,13.37
2018-08-02T03:49:16.626Z,13.40
2018-08-02T03:50:16.604Z,13.33
2018-08-02T03:51:16.592Z,13.33
2018-08-02T03:52:16.545Z,13.43
2018-08-02T03:53:16.523Z,13.41
2018-08-02T03:54:16.504Z,13.36
2018-08-02T03:55:16.458Z,13.40
2018-08-02T03:56:16.451Z,13.41
2018-08-02T03:57:16.410Z,13.47
2018-08-02T03:58:16.398Z,13.36
2018-08-02T03:59:16.372Z,13.47
2018-08-02T04:00:16.350Z,13.54
2018-08-02T04:01:16.332Z,13.51
2018-08-02T04:02:16.301Z,13.51
2018-08-02T04:03:16.272Z,13.47
2018-08-02T04:04:16.254Z,13.43
2018-08-02T04:05:16.231Z,13.54
2018-08-02T04:06:16.202Z,13.41
2018-08-02T04:07:16.176Z,13.37
2018-08-02T04:08:16.152Z,13.38
2018-08-02T04:09:16.127Z,13.37
2018-08-02T04:10:16.105Z,13.43
2018-08-02T04:11:16.080Z,13.41
2018-08-02T04:12:16.053Z,13.36
2018-08-02T04:13:16.033Z,13.30
2018-08-02T04:14:16.011Z,13.37
2018-08-02T04:15:15.978Z,13.36
2018-08-02T04:16:15.956Z,13.30
2018-08-02T04:17:15.933Z,13.36
2018-08-02T04:18:15.905Z,13.36
2018-08-02T04:19:15.857Z,13.37
2018-08-02T04:20:15.851Z,13.40
2018-08-02T04:21:15.834Z,13.46
2018-08-02T04:22:15.806Z,13.38
2018-08-02T04:23:15.759Z,13.36
2018-08-02T04:24:15.757Z,13.33
2018-08-02T04:25:15.729Z,13.40
2018-08-02T04:26:15.704Z,13.41
2018-08-02T04:27:15.683Z,13.40
2018-08-02T04:28:15.654Z,13.44
2018-08-02T04:29:15.630Z,13.40
2018-08-02T04:30:15.607Z,13.41
2018-08-02T04:31:15.578Z,13.44
2018-08-02T04:32:15.539Z,13.44
2018-08-02T04:33:15.525Z,13.46
2018-08-02T04:34:15.525Z,13.43
2018-08-02T04:35:15.480Z,13.46
2018-08-02T04:36:15.458Z,13.47
2018-08-02T04:37:15.428Z,13.46
2018-08-02T04:38:15.404Z,13.43
2018-08-02T04:39:15.382Z,13.52
2018-08-02T04:40:15.337Z,13.49
2018-08-02T04:41:15.333Z,13.47
2018-08-02T04:42:15.354Z,13.49
2018-08-02T04:43:15.278Z,13.54
2018-08-02T04:44:15.252Z,13.51
2018-08-02T04:45:15.230Z,13.54
2018-08-02T04:46:15.213Z,13.51
2018-08-02T04:47:15.184Z,13.47
2018-08-02T04:48:15.160Z,13.44
2018-08-02T04:49:15.118Z,13.52
2018-08-02T04:50:15.109Z,13.54
2018-08-02T04:51:15.062Z,13.59
2018-08-02T04:52:15.055Z,13.46
2018-08-02T04:53:15.031Z,13.44
2018-08-02T04:54:15.008Z,13.46
2018-08-02T04:55:14.981Z,13.46
2018-08-02T04:56:14.956Z,13.46
2018-08-02T04:57:14.932Z,13.49
2018-08-02T04:58:14.905Z,13.43
2018-08-02T04:59:14.881Z,13.46
2018-08-02T05:00:14.860Z,13.46
2018-08-02T05:01:14.884Z,13.55
2018-08-02T05:02:14.802Z,13.49
2018-08-02T05:03:14.779Z,13.51
2018-08-02T05:04:14.757Z,13.44
2018-08-02T05:05:14.713Z,13.46
2018-08-02T05:06:14.689Z,13.52
2018-08-02T05:07:14.683Z,13.41
2018-08-02T05:08:14.701Z,13.51
2018-08-02T05:09:14.635Z,13.41
2018-08-02T05:10:14.608Z,13.47
2018-08-02T05:11:14.580Z,13.46
2018-08-02T05:12:14.562Z,13.51
2018-08-02T05:13:14.533Z,13.49
2018-08-02T05:14:14.508Z,13.51
2018-08-02T05:15:14.481Z,13.46
2018-08-02T05:16:14.456Z,13.52
2018-08-02T05:17:14.438Z,13.54
2018-08-02T05:18:14.406Z,13.52
2018-08-02T05:19:14.359Z,13.46
2018-08-02T05:20:14.337Z,13.47
2018-08-02T05:21:14.336Z,13.52
2018-08-02T05:22:14.340Z,13.52
2018-08-02T05:23:14.279Z,13.52
2018-08-02T05:24:14.263Z,13.49
2018-08-02T05:25:14.235Z,13.52
2018-08-02T05:26:14.226Z,13.52
2018-08-02T05:27:14.188Z,13.47
2018-08-02T05:28:14.157Z,13.52
2018-08-02T05:29:14.132Z,13.46
2018-08-02T05:30:14.105Z,13.43
2018-08-02T05:31:14.084Z,13.51
2018-08-02T05:32:14.058Z,13.51
2018-08-02T05:33:14.039Z,13.55
2018-08-02T05:34:14.043Z,13.63
2018-08-02T05:35:14.131Z,13.55
2018-08-02T05:36:14.380Z,13.62
2018-08-02T05:37:13.936Z,13.55
2018-08-02T05:38:13.907Z,13.55
2018-08-02T05:39:13.891Z,13.52
2018-08-02T05:40:13.864Z,13.59
2018-08-02T05:41:13.831Z,13.49
2018-08-02T05:42:13.866Z,13.52
2018-08-02T05:43:13.784Z,13.52
2018-08-02T05:44:13.763Z,13.67
2018-08-02T05:45:13.734Z,13.67
2018-08-02T05:46:13.712Z,13.56
2018-08-02T05:47:13.666Z,13.65
2018-08-02T05:48:13.656Z,13.58
2018-08-02T05:49:13.635Z,13.67
2018-08-02T05:50:13.610Z,13.58
2018-08-02T05:51:13.589Z,13.65
2018-08-02T05:52:13.560Z,13.62
2018-08-02T05:53:13.537Z,13.69
2018-08-02T05:54:13.516Z,13.56
2018-08-02T05:55:13.489Z,13.62
2018-08-02T05:56:13.465Z,13.61
2018-08-02T05:57:13.416Z,13.59
2018-08-02T05:58:13.409Z,13.61
2018-08-02T05:59:13.389Z,13.69
2018-08-02T06:00:13.365Z,13.65
2018-08-02T06:01:13.335Z,13.63
2018-08-02T06:02:13.312Z,13.59
2018-08-02T06:03:13.263Z,13.59
2018-08-02T06:04:13.271Z,13.62
2018-08-02T06:05:13.236Z,13.61
2018-08-02T06:06:13.216Z,13.63
2018-08-02T06:07:13.171Z,13.58
2018-08-02T06:08:13.167Z,13.55
2018-08-02T06:09:13.138Z,13.52
2018-08-02T06:10:13.109Z,13.61
2018-08-02T06:11:13.090Z,13.51
2018-08-02T06:12:13.097Z,13.51
2018-08-02T06:13:13.040Z,13.43
2018-08-02T06:14:13.020Z,13.47
2018-08-02T06:15:12.984Z,13.46
2018-08-02T06:16:12.948Z,13.51
2018-08-02T06:17:12.939Z,13.43
2018-08-02T06:18:12.919Z,13.49
2018-08-02T06:19:12.888Z,13.51
2018-08-02T06:20:12.843Z,13.51
2018-08-02T06:21:12.844Z,13.47
2018-08-02T06:22:12.815Z,13.49
2018-08-02T06:23:12.788Z,13.40
2018-08-02T06:24:12.750Z,13.49
2018-08-02T06:25:12.743Z,13.46
2018-08-02T06:26:12.716Z,13.56
2018-08-02T06:27:12.672Z,13.54
2018-08-02T06:28:12.681Z,13.54
2018-08-02T06:29:12.617Z,13.46
2018-08-02T06:30:12.619Z,13.58
2018-08-02T06:31:12.591Z,13.59
2018-08-02T06:32:12.570Z,13.47
2018-08-02T06:33:12.523Z,13.58
2018-08-02T06:34:12.524Z,13.52
2018-08-02T06:35:12.470Z,13.62
2018-08-02T06:36:12.466Z,13.59
2018-08-02T06:37:12.442Z,13.61
2018-08-02T06:38:12.419Z,13.47
2018-08-02T06:39:12.394Z,13.51
2018-08-02T06:40:12.362Z,13.56
2018-08-02T06:41:12.337Z,13.52
2018-08-02T06:42:12.293Z,13.46
2018-08-02T06:43:12.289Z,13.58
2018-08-02T06:44:12.265Z,13.46
2018-08-02T06:45:12.221Z,13.46
2018-08-02T06:46:12.219Z,13.52
2018-08-02T06:47:12.174Z,13.49
2018-08-02T06:48:12.150Z,13.47
2018-08-02T06:49:12.138Z,13.49
2018-08-02T06:50:12.116Z,13.51
2018-08-02T06:51:12.097Z,13.49
2018-08-02T06:52:12.068Z,13.47
2018-08-02T06:53:12.046Z,13.47
2018-08-02T06:54:12.019Z,13.51
2018-08-02T06:55:11.973Z,13.51
2018-08-02T06:56:11.953Z,13.47
2018-08-02T06:57:11.945Z,13.46
2018-08-02T06:58:11.918Z,13.46
2018-08-02T06:59:12.009Z,13.51
2018-08-02T07:00:11.871Z,13.51
2018-08-02T07:01:11.849Z,13.49
2018-08-02T07:02:11.816Z,13.49
2018-08-02T07:03:11.792Z,13.49
2018-08-02T07:04:11.746Z,13.51
2018-08-02T07:05:11.744Z,13.51
2018-08-02T07:06:11.820Z,13.43
2018-08-02T07:07:11.678Z,13.47
2018-08-02T07:08:11.666Z,13.51
2018-08-02T07:09:11.644Z,13.46
2018-08-02T07:10:11.622Z,13.61
2018-08-02T07:11:11.593Z,13.56
2018-08-02T07:12:11.599Z,13.52
2018-08-02T07:13:11.538Z,13.54
2018-08-02T07:14:11.535Z,13.51
2018-08-02T07:15:11.495Z,13.55
2018-08-02T07:16:11.468Z,13.65
2018-08-02T07:17:11.421Z,13.58
2018-08-02T07:18:11.447Z,13.67
2018-08-02T07:19:11.394Z,13.61
2018-08-02T07:20:11.372Z,13.62
2018-08-02T07:21:11.347Z,13.61
2018-08-02T07:22:11.321Z,13.61
2018-08-02T07:23:11.294Z,13.58
2018-08-02T07:24:11.272Z,13.59
2018-08-02T07:25:11.247Z,13.56
2018-08-02T07:26:11.219Z,13.56
2018-08-02T07:27:11.197Z,13.67
2018-08-02T07:28:11.170Z,13.67
2018-08-02T07:29:11.148Z,13.69
2018-08-02T07:30:11.117Z,13.46
2018-08-02T07:31:11.099Z,13.47
2018-08-02T07:32:11.072Z,13.47
2018-08-02T07:33:11.047Z,13.41
2018-08-02T07:34:11.029Z,13.44
2018-08-02T07:35:10.996Z,13.49
2018-08-02T07:36:10.973Z,13.40
2018-08-02T07:37:10.947Z,13.47
2018-08-02T07:38:10.927Z,13.49
2018-08-02T07:39:10.897Z,13.37
2018-08-02T07:40:10.872Z,13.36
2018-08-02T07:41:10.844Z,13.41
2018-08-02T07:42:10.822Z,13.44
2018-08-02T07:43:10.968Z,13.41
2018-08-02T07:44:10.830Z,13.43
2018-08-02T07:45:10.751Z,13.44
2018-08-02T07:46:10.702Z,13.40
2018-08-02T07:47:10.700Z,13.36
2018-08-02T07:48:10.669Z,13.41
2018-08-02T07:49:10.857Z,13.43
2018-08-02T07:50:10.624Z,13.44
2018-08-02T07:51:10.595Z,13.46
2018-08-02T07:52:10.556Z,13.47
2018-08-02T07:53:10.549Z,13.47
2018-08-02T07:54:10.520Z,13.38
2018-08-02T07:55:10.483Z,13.43
2018-08-02T07:56:10.485Z,13.46
2018-08-02T07:57:10.443Z,13.44
2018-08-02T07:58:10.402Z,13.43
2018-08-02T07:59:10.396Z,13.36
2018-08-02T08:00:10.373Z,13.46
2018-08-02T08:01:10.350Z,13.51
2018-08-02T08:02:10.326Z,13.46
2018-08-02T08:03:10.297Z,13.46
2018-08-02T08:04:10.284Z,13.46
2018-08-02T08:05:10.244Z,13.52
2018-08-02T08:06:10.221Z,13.47
2018-08-02T08:07:10.200Z,13.47
2018-08-02T08:08:10.167Z,13.46
2018-08-02T08:09:10.146Z,13.52
2018-08-02T08:10:10.126Z,13.52
2018-08-02T08:11:10.146Z,13.55
2018-08-02T08:12:10.084Z,13.52
2018-08-02T08:13:10.052Z,13.52
2018-08-02T08:14:10.023Z,13.47
2018-08-02T08:15:10.027Z,13.58
2018-08-02T08:16:09.988Z,13.56
2018-08-02T08:17:09.952Z,13.62
2018-08-02T08:18:09.920Z,13.62
2018-08-02T08:19:09.903Z,13.63
2018-08-02T08:20:09.887Z,13.61
2018-08-02T08:21:09.852Z,13.58
2018-08-02T08:22:09.827Z,13.62
2018-08-02T08:23:09.807Z,13.67
2018-08-02T08:24:09.752Z,13.61
2018-08-02T08:25:09.749Z,13.62
2018-08-02T08:26:09.743Z,13.59
2018-08-02T08:27:09.700Z,13.59
2018-08-02T08:28:09.671Z,13.62
2018-08-02T08:29:09.632Z,13.63
2018-08-02T08:30:09.622Z,13.63
2018-08-02T08:31:09.580Z,13.63
2018-08-02T08:32:09.586Z,13.59
2018-08-02T08:33:09.554Z,13.65
2018-08-02T08:34:09.522Z,13.67
2018-08-02T08:35:09.500Z,13.65
2018-08-02T08:36:09.574Z,13.70
2018-08-02T08:38:09.462Z,13.74
2018-08-02T08:39:09.398Z,13.63
2018-08-02T08:40:09.376Z,13.70
2018-08-02T08:41:09.351Z,13.71
2018-08-02T08:42:09.306Z,13.65
2018-08-02T08:43:09.302Z,13.70
2018-08-02T08:44:09.278Z,13.65
2018-08-02T08:45:09.257Z,13.65
2018-08-02T08:46:09.252Z,13.62
2018-08-02T08:47:09.223Z,13.63
2018-08-02T08:48:09.164Z,13.63
2018-08-02T08:49:09.149Z,13.61
2018-08-02T08:50:09.128Z,13.52
2018-08-02T08:51:09.106Z,13.51
2018-08-02T08:52:09.083Z,13.49
2018-08-02T08:53:09.056Z,13.52
2018-08-02T08:54:09.030Z,13.52
2018-08-02T08:55:08.986Z,13.54
2018-08-02T08:56:08.981Z,13.52
2018-08-02T08:57:08.949Z,13.47
2018-08-02T08:58:08.996Z,13.49
2018-08-02T08:59:08.976Z,13.56
2018-08-02T09:00:08.949Z,13.46
2018-08-02T09:01:08.921Z,13.46
2018-08-02T09:02:08.902Z,13.43
2018-08-02T09:03:08.907Z,13.47
2018-08-02T09:04:08.845Z,13.49
2018-08-02T09:05:08.824Z,13.51
2018-08-02T09:06:08.797Z,13.44
2018-08-02T09:07:08.777Z,13.51
2018-08-02T09:08:08.749Z,13.54
2018-08-02T09:09:08.720Z,13.59
2018-08-02T09:10:08.700Z,13.52
2018-08-02T09:11:08.670Z,13.59
2018-08-02T09:12:08.648Z,13.62
2018-08-02T09:13:08.626Z,13.56
2018-08-02T09:14:08.600Z,13.62
2018-08-02T09:15:08.578Z,13.55
2018-08-02T09:16:08.548Z,13.55
2018-08-02T09:17:08.541Z,13.59
2018-08-02T09:18:08.499Z,13.56
2018-08-02T09:19:08.474Z,13.58
2018-08-02T09:20:08.602Z,13.63
2018-08-02T09:21:08.421Z,13.67
2018-08-02T09:22:08.330Z,13.62
2018-08-02T09:23:08.283Z,13.62
2018-08-02T09:24:08.275Z,13.62
2018-08-02T09:25:08.250Z,13.63
2018-08-02T09:26:08.232Z,13.63
2018-08-02T09:27:08.239Z,13.69
2018-08-02T09:28:08.179Z,13.65
2018-08-02T09:29:08.155Z,13.70
2018-08-02T09:30:08.132Z,13.62
2018-08-02T09:31:08.085Z,13.65
2018-08-02T09:32:08.124Z,13.71
2018-08-02T09:33:08.225Z,13.62
2018-08-02T09:34:08.039Z,13.63
2018-08-02T09:35:08.003Z,13.73
2018-08-02T09:36:07.975Z,13.69
2018-08-02T09:37:07.958Z,13.70
2018-08-02T09:38:07.932Z,13.62
2018-08-02T09:39:07.908Z,13.73
2018-08-02T09:40:07.885Z,13.71
2018-08-02T09:41:07.855Z,13.77
2018-08-02T09:42:07.834Z,13.73
2018-08-02T09:43:07.810Z,13.67
2018-08-02T09:44:07.784Z,13.73
2018-08-02T09:45:07.759Z,13.73
2018-08-02T09:46:07.715Z,13.74
2018-08-02T09:47:07.771Z,13.77
2018-08-02T09:48:07.684Z,13.73
2018-08-02T09:49:07.643Z,13.74
2018-08-02T09:50:07.634Z,13.74
2018-08-02T09:51:07.608Z,13.77
2018-08-02T09:52:07.561Z,13.80
2018-08-02T09:53:07.536Z,13.81
2018-08-02T09:54:07.533Z,13.71
2018-08-02T09:55:07.510Z,13.74
2018-08-02T09:56:07.490Z,13.80
2018-08-02T09:57:07.460Z,13.80
2018-08-02T09:58:07.434Z,13.83
2018-08-02T09:59:07.394Z,13.80
2018-08-02T10:00:07.380Z,13.92
2018-08-02T10:01:07.336Z,13.83
2018-08-02T10:02:07.335Z,13.88
2018-08-02T10:03:07.314Z,13.83
2018-08-02T10:04:07.289Z,13.92
2018-08-02T10:05:07.260Z,13.96
2018-08-02T10:06:07.243Z,13.94
2018-08-02T10:07:07.211Z,13.91
2018-08-02T10:08:07.189Z,13.95
2018-08-02T10:09:07.163Z,13.92
2018-08-02T10:10:07.139Z,13.91
2018-08-02T10:11:07.111Z,13.88
2018-08-02T10:12:07.093Z,13.84
2018-08-02T10:13:07.067Z,13.79
2018-08-02T10:14:07.044Z,13.84
2018-08-02T10:15:07.015Z,13.80
2018-08-02T10:16:07.009Z,13.83
2018-08-02T10:17:06.966Z,13.79
2018-08-02T10:18:06.943Z,13.84
2018-08-02T10:19:06.914Z,13.87
2018-08-02T10:20:06.891Z,13.80
2018-08-02T10:21:06.866Z,13.81
2018-08-02T10:22:06.842Z,13.89
2018-08-02T10:23:06.817Z,13.88
2018-08-02T10:24:06.790Z,13.91
2018-08-02T10:25:06.764Z,13.91
2018-08-02T10:26:06.747Z,13.89
2018-08-02T10:27:06.714Z,13.98
2018-08-02T10:28:06.693Z,14.01
2018-08-02T10:29:06.667Z,13.99
2018-08-02T10:30:06.643Z,14.07
2018-08-02T10:31:06.654Z,14.06
2018-08-02T10:32:06.596Z,14.07
2018-08-02T10:33:06.571Z,13.99
2018-08-02T10:34:06.547Z,14.04
2018-08-02T10:35:06.536Z,14.04
2018-08-02T10:36:06.495Z,14.07
2018-08-02T10:37:06.473Z,14.10
2018-08-02T10:38:06.446Z,14.01
2018-08-02T10:39:06.423Z,14.07
2018-08-02T10:40:06.398Z,14.07
2018-08-02T10:41:06.374Z,14.10
2018-08-02T10:42:06.351Z,14.01
2018-08-02T10:43:06.327Z,14.07
2018-08-02T10:44:06.307Z,14.09
2018-08-02T10:45:06.257Z,14.04
2018-08-02T10:46:06.255Z,14.04
2018-08-02T10:47:06.226Z,14.06
2018-08-02T10:48:06.203Z,14.06
2018-08-02T10:49:06.181Z,14.10
2018-08-02T10:50:06.140Z,14.13
2018-08-02T10:51:06.134Z,14.10
2018-08-02T10:52:06.109Z,14.14
2018-08-02T10:53:06.083Z,14.13
2018-08-02T10:54:06.058Z,14.10
2018-08-02T10:55:06.033Z,14.17
2018-08-02T10:56:06.089Z,14.17
2018-08-02T10:57:05.983Z,14.14
2018-08-02T10:58:05.960Z,14.20
2018-08-02T10:59:05.941Z,14.16
2018-08-02T11:00:05.897Z,14.16
2018-08-02T11:01:05.889Z,14.24
2018-08-02T11:02:05.848Z,14.19
2018-08-02T11:03:05.840Z,14.31
2018-08-02T11:04:05.819Z,14.21
2018-08-02T11:05:05.805Z,14.32
2018-08-02T11:06:05.771Z,14.31
2018-08-02T11:07:05.783Z,14.35
2018-08-02T11:08:05.718Z,14.24
2018-08-02T11:09:05.694Z,14.21
2018-08-02T11:10:05.673Z,14.25
2018-08-02T11:11:05.646Z,14.35
2018-08-02T11:12:05.631Z,14.35
2018-08-02T11:13:05.599Z,14.37
2018-08-02T11:14:05.578Z,14.29
2018-08-02T11:15:05.532Z,14.35
2018-08-02T11:16:05.522Z,14.37
2018-08-02T11:17:05.505Z,14.32
2018-08-02T11:18:05.479Z,14.28
2018-08-02T11:19:05.437Z,14.31
2018-08-02T11:20:05.432Z,14.27
2018-08-02T11:21:05.410Z,14.42
2018-08-02T11:22:05.381Z,14.32
2018-08-02T11:23:05.362Z,14.31
2018-08-02T11:24:05.319Z,14.31
2018-08-02T11:25:05.314Z,14.43
2018-08-02T11:26:05.292Z,14.50
2018-08-02T11:27:05.262Z,14.46
2018-08-02T11:28:05.235Z,14.42
2018-08-02T11:29:05.216Z,14.54
2018-08-02T11:30:05.197Z,14.53
2018-08-02T11:31:05.152Z,14.49
2018-08-02T11:32:05.150Z,14.50
2018-08-02T11:33:05.106Z,14.53
2018-08-02T11:34:05.104Z,14.56
2018-08-02T11:35:05.074Z,14.56
2018-08-02T11:36:05.055Z,14.53
2018-08-02T11:37:05.025Z,14.62
2018-08-02T11:38:05.008Z,14.64
2018-08-02T11:39:04.956Z,14.65
2018-08-02T11:40:04.954Z,14.62
2018-08-02T11:41:04.929Z,14.54
2018-08-02T11:42:04.909Z,14.62
2018-08-02T11:43:04.885Z,14.72
2018-08-02T11:44:04.860Z,14.65
2018-08-02T11:45:04.841Z,14.72
2018-08-02T11:46:04.815Z,14.64
2018-08-02T11:47:04.791Z,14.62
2018-08-02T11:48:04.765Z,14.60
2018-08-02T11:49:04.744Z,14.61
2018-08-02T11:50:04.725Z,14.61
2018-08-02T11:51:04.712Z,14.62
2018-08-02T11:52:04.652Z,14.61
2018-08-02T11:53:04.648Z,14.65
2018-08-02T11:54:04.624Z,14.64
2018-08-02T11:55:04.604Z,14.69
2018-08-02T11:56:04.579Z,14.84
2018-08-02T11:57:04.615Z,14.78
2018-08-02T11:58:04.532Z,14.78
2018-08-02T11:59:04.514Z,14.90
2018-08-02T12:00:04.467Z,14.90
2018-08-02T12:01:04.444Z,14.91
2018-08-02T12:02:04.471Z,14.94
2018-08-02T12:03:04.497Z,14.91
2018-08-02T12:04:04.388Z,14.93
2018-08-02T12:05:04.365Z,14.99
2018-08-02T12:06:04.343Z,15.03
2018-08-02T12:07:04.325Z,14.93
2018-08-02T12:08:04.299Z,14.94
2018-08-02T12:09:04.261Z,15.01
2018-08-02T12:10:04.254Z,15.03
2018-08-02T12:11:04.240Z,15.02
2018-08-02T12:12:04.204Z,15.06
2018-08-02T12:13:04.160Z,14.98
2018-08-02T12:14:04.161Z,14.94
2018-08-02T12:15:04.116Z,15.02
2018-08-02T12:16:04.112Z,15.05
2018-08-02T12:17:04.089Z,14.99
2018-08-02T12:18:04.051Z,15.05
2018-08-02T12:19:04.041Z,15.02
2018-08-02T12:20:04.016Z,14.99
2018-08-02T12:21:03.999Z,15.11
2018-08-02T12:22:04.014Z,15.01
2018-08-02T12:23:03.950Z,15.12
2018-08-02T12:24:04.088Z,15.09
2018-08-02T12:25:03.886Z,15.23
2018-08-02T12:26:03.864Z,15.26
2018-08-02T12:27:03.854Z,15.31
2018-08-02T12:28:03.847Z,15.27
2018-08-02T12:29:03.821Z,15.30
2018-08-02T12:30:03.790Z,15.31
2018-08-02T12:31:03.747Z,15.36
2018-08-02T12:32:03.723Z,15.43
2018-08-02T12:33:03.721Z,15.52
2018-08-02T12:34:03.695Z,15.36
2018-08-02T12:35:03.681Z,15.45
2018-08-02T12:36:03.635Z,15.59
2018-08-02T12:37:03.669Z,15.64
2018-08-02T12:38:03.611Z,15.56
2018-08-02T12:39:03.590Z,15.46
2018-08-02T12:40:03.565Z,15.41
2018-08-02T12:41:03.541Z,15.42
2018-08-02T12:42:03.501Z,15.60
2018-08-02T12:43:03.496Z,15.56
2018-08-02T12:44:03.476Z,15.75
2018-08-02T12:45:03.454Z,15.74
2018-08-02T12:46:03.525Z,15.76
2018-08-02T12:47:03.402Z,15.70
2018-08-02T12:48:03.394Z,15.85
2018-08-02T12:49:03.369Z,16.11
2018-08-02T12:50:03.346Z,16.09
2018-08-02T12:51:03.356Z,16.20
2018-08-02T12:52:03.304Z,16.50
2018-08-02T12:53:03.299Z,16.52